Terminal Aerodrome Forecast
Issued by NWS

Home | Current Version | Previous Version | Graphics & Text | Print | Product List | Glossary On
Versions: 1 2 3 4 5 6 7 8 9 10 11 12 13 14 15 16
000
FTUS43 KICT 151722
TAFCNU
TAF
KCNU 151722Z 1518/1618 36014G20KT P6SM SKC
     FM160000 36007KT P6SM SKC
     FM160600 06005KT P6SM SKC
     FM161200 12007KT P6SM SCT250=

USA.gov is the U.S. government's official web portal to all federal, state and local government web resources and services.